Terminal Aerodrome Forecast
Issued by NWS

Home | Current Version | Previous Version | Text Only | Print | Product List | Glossary On
Versions: 1 2 3 4 5 6 7 8 9 10 11 12 13 14 15 16 17 18 19 20 21 22 23 24 25 26 27 28
000
FTUS43 KABR 270500
TAFPIR
TAF
KPIR 270524Z 2706/2806 VRB06KT P6SM BKN110
     FM270800 13008KT P6SM SCT030 BKN060 OVC100
     FM271400 14011KT 4SM -SN BKN025 OVC040
     FM271900 14011KT P6SM OVC030
     FM280000 11006KT P6SM OVC100=

USA.gov is the U.S. government's official web portal to all federal, state and local government web resources and services.